createdAt,value
2019-05-29T00:01:18.482Z,101098.45
2019-05-29T00:03:44.554Z,101101.36
2019-05-29T00:06:14.405Z,101096.44
2019-05-29T00:08:44.079Z,101104.48
2019-05-29T00:11:14.327Z,101108.97
2019-05-29T00:13:44.061Z,101112.38
2019-05-29T00:16:14.513Z,101116.80
2019-05-29T00:18:44.308Z,101121.27
2019-05-29T00:21:14.736Z,101127.24
2019-05-29T00:23:44.676Z,101127.60
2019-05-29T00:26:14.672Z,101130.20
2019-05-29T00:28:44.304Z,101135.95
2019-05-29T00:31:14.037Z,101129.84
2019-05-29T00:33:43.703Z,101134.49
2019-05-29T00:36:14.331Z,101131.52
2019-05-29T00:38:44.162Z,101127.91
2019-05-29T00:41:15.066Z,101131.71
2019-05-29T00:43:45.035Z,101137.06
2019-05-29T00:46:15.566Z,101140.86
2019-05-29T00:48:45.193Z,101147.44
2019-05-29T00:51:15.164Z,101151.11
2019-05-29T00:53:44.861Z,101151.27
2019-05-29T00:56:14.708Z,101157.31
2019-05-29T00:58:44.323Z,101158.16
2019-05-29T01:01:14.055Z,101162.86
2019-05-29T01:03:45.003Z,101160.36
2019-05-29T01:06:15.991Z,101162.33
2019-05-29T01:08:45.706Z,101159.77
2019-05-29T01:11:15.384Z,101170.36
2019-05-29T01:13:45.047Z,101162.70
2019-05-29T01:16:15.356Z,101171.56
2019-05-29T01:18:45.070Z,101182.39
2019-05-29T01:21:14.630Z,101184.23
2019-05-29T01:23:44.205Z,101185.54
2019-05-29T01:26:14.517Z,101186.50
2019-05-29T01:28:44.209Z,101185.60
2019-05-29T01:31:15.127Z,101188.92
2019-05-29T01:33:44.776Z,101191.90
2019-05-29T01:36:14.412Z,101198.84
2019-05-29T01:38:43.985Z,101200.41
2019-05-29T01:41:13.556Z,101201.61
2019-05-29T01:43:43.130Z,101203.82
2019-05-29T01:46:12.688Z,101207.14
2019-05-29T01:48:42.284Z,101205.20
2019-05-29T01:51:11.945Z,101212.38
2019-05-29T01:53:41.493Z,101216.52
2019-05-29T01:56:11.072Z,101212.72
2019-05-29T01:58:40.896Z,101217.73
2019-05-29T02:01:10.491Z,101220.70
2019-05-29T02:03:40.117Z,101229.14
2019-05-29T02:06:09.675Z,101225.68
2019-05-29T02:08:39.259Z,101228.61
2019-05-29T02:11:09.033Z,101237.80
2019-05-29T02:13:38.616Z,101232.27
2019-05-29T02:16:08.346Z,101237.24
2019-05-29T02:18:37.960Z,101236.30
2019-05-29T02:21:07.594Z,101240.69
2019-05-29T02:23:37.188Z,101244.80
2019-05-29T02:26:06.748Z,101253.84
2019-05-29T02:28:36.306Z,101245.36
2019-05-29T02:31:05.983Z,101253.31
2019-05-29T02:33:35.564Z,101251.48
2019-05-29T02:36:05.121Z,101258.33
2019-05-29T02:38:34.702Z,101259.24
2019-05-29T02:41:04.435Z,101267.02
2019-05-29T02:43:33.998Z,101269.88
2019-05-29T02:46:03.689Z,101274.14
2019-05-29T02:48:33.330Z,101269.88
2019-05-29T02:51:03.149Z,101267.53
2019-05-29T02:53:32.699Z,101270.28
2019-05-29T02:56:02.258Z,101274.77
2019-05-29T02:58:32.024Z,101276.00
2019-05-29T03:01:01.738Z,101282.11
2019-05-29T03:03:39.463Z,101279.95
2019-05-29T03:06:05.636Z,101281.35
2019-05-29T03:08:35.532Z,101280.13
2019-05-29T03:11:05.388Z,101288.36
2019-05-29T03:13:35.076Z,101282.55
2019-05-29T03:16:11.563Z,101289.12
2019-05-29T03:18:36.114Z,101290.08
2019-05-29T03:21:05.698Z,101284.94
2019-05-29T03:23:36.143Z,101292.13
2019-05-29T03:26:06.233Z,101303.69
2019-05-29T03:28:35.900Z,101300.58
2019-05-29T03:31:05.728Z,101300.93
2019-05-29T03:33:45.268Z,101308.28
2019-05-29T03:36:06.706Z,101315.36
2019-05-29T03:38:36.246Z,101324.13
2019-05-29T03:41:05.849Z,101320.88
2019-05-29T03:43:36.184Z,101328.77
2019-05-29T03:46:06.063Z,101334.22
2019-05-29T03:48:35.653Z,101341.31
2019-05-29T03:51:05.278Z,101341.71
2019-05-29T03:53:36.645Z,101334.09
2019-05-29T03:56:06.294Z,101336.36
2019-05-29T03:58:37.721Z,101341.41
2019-05-29T04:01:07.311Z,101338.23
2019-05-29T04:03:38.069Z,101336.84
2019-05-29T04:06:08.650Z,101343.41
2019-05-29T04:08:38.725Z,101351.08
2019-05-29T04:11:08.368Z,101351.72
2019-05-29T04:13:39.138Z,101351.66
2019-05-29T04:16:10.968Z,101347.53
2019-05-29T04:18:41.449Z,101353.41
2019-05-29T04:21:11.822Z,101353.87
2019-05-29T04:23:42.970Z,101360.21
2019-05-29T04:26:15.667Z,101362.70
2019-05-29T04:28:45.797Z,101369.45
2019-05-29T04:31:15.434Z,101367.41
2019-05-29T04:33:45.003Z,101377.73
2019-05-29T04:36:14.570Z,101374.89
2019-05-29T04:38:44.131Z,101386.63
2019-05-29T04:41:13.712Z,101392.25
2019-05-29T04:43:43.265Z,101399.30
2019-05-29T04:46:12.848Z,101403.98
2019-05-29T04:48:42.406Z,101414.48
2019-05-29T04:51:12.050Z,101415.17
2019-05-29T04:53:41.619Z,101417.31
2019-05-29T04:56:11.278Z,101414.03
2019-05-29T04:58:40.850Z,101422.82
2019-05-29T05:01:10.459Z,101428.41
2019-05-29T05:03:40.018Z,101424.44
2019-05-29T05:06:09.595Z,101434.06
2019-05-29T05:08:39.707Z,101434.03
2019-05-29T05:11:10.339Z,101433.55
2019-05-29T05:13:40.033Z,101440.30
2019-05-29T05:16:09.860Z,101435.61
2019-05-29T05:18:40.253Z,101435.98
2019-05-29T05:21:10.080Z,101434.52
2019-05-29T05:23:40.593Z,101437.41
2019-05-29T05:26:10.598Z,101431.63
2019-05-29T05:28:43.210Z,101442.91
2019-05-29T05:31:11.450Z,101444.52
2019-05-29T05:33:41.227Z,101441.99
2019-05-29T05:36:10.868Z,101446.09
2019-05-29T05:38:41.122Z,101449.28
2019-05-29T05:41:11.090Z,101453.30
2019-05-29T05:43:41.398Z,101451.31
2019-05-29T05:46:11.337Z,101461.77
2019-05-29T05:48:41.723Z,101461.92
2019-05-29T05:51:11.415Z,101459.52
2019-05-29T05:53:41.734Z,101460.82
2019-05-29T05:56:11.996Z,101461.59
2019-05-29T05:58:42.257Z,101470.38
2019-05-29T06:01:12.284Z,101470.67
2019-05-29T06:03:42.462Z,101472.16
2019-05-29T06:06:12.795Z,101472.06
2019-05-29T06:08:42.768Z,101472.83
2019-05-29T06:11:12.360Z,101475.34
2019-05-29T06:13:42.807Z,101481.41
2019-05-29T06:16:12.635Z,101479.42
2019-05-29T06:18:43.033Z,101482.86
2019-05-29T06:21:13.023Z,101477.82
2019-05-29T06:23:43.522Z,101486.09
2019-05-29T06:26:13.551Z,101484.03
2019-05-29T06:28:43.622Z,101482.12
2019-05-29T06:31:13.238Z,101485.41
2019-05-29T06:33:43.953Z,101487.86
2019-05-29T06:36:13.869Z,101482.80
2019-05-29T06:38:44.382Z,101489.73
2019-05-29T06:41:14.559Z,101483.59
2019-05-29T06:43:44.594Z,101486.72
2019-05-29T06:46:14.548Z,101483.03
2019-05-29T06:48:57.599Z,101490.73
2019-05-29T06:51:15.469Z,101495.36
2019-05-29T06:53:45.207Z,101495.59
2019-05-29T06:56:15.684Z,101493.25
2019-05-29T06:58:46.017Z,101498.32
2019-05-29T07:01:15.600Z,101501.22
2019-05-29T07:03:45.345Z,101501.13
2019-05-29T07:06:15.013Z,101501.17
2019-05-29T07:08:48.054Z,101509.72
2019-05-29T07:11:15.985Z,101509.70
2019-05-29T07:13:48.379Z,101513.74
2019-05-29T07:16:16.935Z,101517.75
2019-05-29T07:19:23.335Z,101511.22
2019-05-29T07:21:17.785Z,101516.93
2019-05-29T07:23:48.760Z,101525.21
2019-05-29T07:26:18.760Z,101519.19
2019-05-29T07:29:07.071Z,101523.44
2019-05-29T07:31:19.697Z,101521.55
2019-05-29T07:33:49.276Z,101521.05
2019-05-29T07:36:18.839Z,101523.62
2019-05-29T07:38:57.557Z,101518.81
2019-05-29T07:41:19.858Z,101522.75
2019-05-29T07:43:49.444Z,101522.48
2019-05-29T07:46:19.197Z,101526.50
2019-05-29T07:48:50.397Z,101529.55
2019-05-29T07:51:20.326Z,101527.27
2019-05-29T07:53:49.909Z,101524.26
2019-05-29T07:56:22.934Z,101527.63
2019-05-29T07:59:01.886Z,101528.98
2019-05-29T08:01:22.551Z,101531.32
2019-05-29T08:03:52.132Z,101532.95
2019-05-29T08:06:21.832Z,101536.41
2019-05-29T08:08:51.519Z,101539.61
2019-05-29T08:11:21.174Z,101532.53
2019-05-29T08:13:50.794Z,101535.37
2019-05-29T08:16:20.361Z,101543.06
2019-05-29T08:18:52.921Z,101538.25
2019-05-29T08:21:21.483Z,101535.48
2019-05-29T08:23:51.391Z,101534.16
2019-05-29T08:26:21.434Z,101542.80
2019-05-29T08:28:51.596Z,101542.45
2019-05-29T08:31:21.210Z,101539.50
2019-05-29T08:33:51.418Z,101545.94
2019-05-29T08:36:21.177Z,101542.67
2019-05-29T08:38:51.818Z,101538.98
2019-05-29T08:41:21.800Z,101541.14
2019-05-29T08:43:52.604Z,101539.00
2019-05-29T08:46:22.400Z,101544.98
2019-05-29T08:48:52.355Z,101544.48
2019-05-29T08:51:22.077Z,101535.70
2019-05-29T08:53:54.342Z,101541.88
2019-05-29T08:56:23.224Z,101541.19
2019-05-29T08:58:52.809Z,101543.84
2019-05-29T09:01:22.449Z,101551.15
2019-05-29T09:03:53.309Z,101539.70
2019-05-29T09:06:23.088Z,101551.31
2019-05-29T09:08:54.808Z,101546.34
2019-05-29T09:11:23.941Z,101549.68
2019-05-29T09:13:53.532Z,101544.16
2019-05-29T09:16:23.218Z,101541.97
2019-05-29T09:18:52.863Z,101538.84
2019-05-29T09:21:23.627Z,101549.66
2019-05-29T09:23:53.853Z,101541.52
2019-05-29T09:26:25.823Z,101535.70
2019-05-29T09:28:54.903Z,101537.48
2019-05-29T09:31:24.849Z,101540.30
2019-05-29T09:33:54.498Z,101534.80
2019-05-29T09:36:24.949Z,101545.53
2019-05-29T09:38:54.750Z,101540.05
2019-05-29T09:41:25.574Z,101542.16
2019-05-29T09:43:59.619Z,101547.72
2019-05-29T09:46:26.751Z,101536.38
2019-05-29T09:48:56.322Z,101544.30
2019-05-29T09:51:26.774Z,101540.91
2019-05-29T09:53:58.054Z,101543.38
2019-05-29T09:56:28.697Z,101539.56
2019-05-29T09:58:59.695Z,101547.62
2019-05-29T10:01:29.734Z,101546.95
2019-05-29T10:04:01.890Z,101540.98
2019-05-29T10:06:30.721Z,101549.35
2019-05-29T10:09:01.643Z,101548.95
2019-05-29T10:11:31.444Z,101554.25
2019-05-29T10:14:02.633Z,101549.54
2019-05-29T10:16:32.398Z,101549.96
2019-05-29T10:19:03.219Z,101557.11
2019-05-29T10:21:40.149Z,101556.58
2019-05-29T10:24:06.044Z,101557.34
2019-05-29T10:26:35.915Z,101555.17
2019-05-29T10:29:09.220Z,101558.27
2019-05-29T10:31:37.009Z,101548.95
2019-05-29T10:34:06.604Z,101548.87
2019-05-29T10:36:36.221Z,101546.50
2019-05-29T10:39:07.917Z,101541.39
2019-05-29T10:41:37.563Z,101536.17
2019-05-29T10:44:07.282Z,101534.80
2019-05-29T10:46:36.809Z,101535.80
2019-05-29T10:49:06.652Z,101538.30
2019-05-29T10:51:36.219Z,101538.02
2019-05-29T10:54:06.007Z,101537.39
2019-05-29T10:56:36.540Z,101535.48
2019-05-29T10:59:06.256Z,101535.31
2019-05-29T11:01:35.824Z,101533.20
2019-05-29T11:04:05.696Z,101534.53
2019-05-29T11:06:35.221Z,101524.12
2019-05-29T11:09:06.845Z,101525.80
2019-05-29T11:11:36.462Z,101522.70
2019-05-29T11:14:06.291Z,101520.63
2019-05-29T11:16:39.614Z,101525.46
2019-05-29T11:19:07.144Z,101522.27
2019-05-29T11:21:36.709Z,101523.55
2019-05-29T11:24:06.467Z,101527.16
2019-05-29T11:26:36.033Z,101518.20
2019-05-29T11:29:06.209Z,101515.47
2019-05-29T11:31:35.873Z,101517.59
2019-05-29T11:34:05.776Z,101516.52
2019-05-29T11:36:35.338Z,101515.53
2019-05-29T11:39:08.297Z,101506.42
2019-05-29T11:41:37.867Z,101511.27
2019-05-29T11:44:07.520Z,101513.48
2019-05-29T11:46:37.260Z,101508.86
2019-05-29T11:49:06.857Z,101510.72
2019-05-29T11:51:36.533Z,101508.84
2019-05-29T11:54:06.200Z,101511.39
2019-05-29T11:56:35.826Z,101518.34
2019-05-29T11:59:06.749Z,101513.47
2019-05-29T12:01:49.813Z,101509.39
2019-05-29T12:04:24.108Z,101507.14
2019-05-29T12:06:38.938Z,101505.70
2019-05-29T12:09:10.261Z,101507.70
2019-05-29T12:11:39.835Z,101510.31
2019-05-29T12:14:09.443Z,101506.73
2019-05-29T12:16:39.017Z,101506.64
2019-05-29T12:19:08.598Z,101507.34
2019-05-29T12:21:42.393Z,101505.96
2019-05-29T12:24:09.595Z,101503.86
2019-05-29T12:26:39.395Z,101499.36
2019-05-29T12:29:11.880Z,101503.55
2019-05-29T12:31:40.442Z,101495.12
2019-05-29T12:34:18.947Z,101496.68
2019-05-29T12:36:41.328Z,101497.41
2019-05-29T12:39:10.918Z,101495.16
2019-05-29T12:41:40.523Z,101493.50
2019-05-29T12:44:10.183Z,101489.92
2019-05-29T12:46:39.913Z,101495.25
2019-05-29T12:49:09.512Z,101498.23
2019-05-29T12:51:39.192Z,101490.16
2019-05-29T12:54:08.772Z,101489.95
2019-05-29T12:56:38.342Z,101490.27
2019-05-29T12:59:07.996Z,101481.25
2019-05-29T13:01:37.669Z,101489.44
2019-05-29T13:04:07.333Z,101490.36
2019-05-29T13:06:36.890Z,101493.70
2019-05-29T13:09:08.465Z,101482.38
2019-05-29T13:11:38.125Z,101494.73
2019-05-29T13:14:07.696Z,101492.37
2019-05-29T13:16:37.276Z,101486.41
2019-05-29T13:19:06.951Z,101485.15
2019-05-29T13:21:36.537Z,101488.89
2019-05-29T13:24:11.477Z,101484.08
2019-05-29T13:26:38.069Z,101484.19
2019-05-29T13:29:07.630Z,101484.95
2019-05-29T13:31:37.214Z,101483.30
2019-05-29T13:34:07.271Z,101480.41
2019-05-29T13:36:37.055Z,101481.61
2019-05-29T13:39:08.685Z,101476.52
2019-05-29T13:41:38.254Z,101480.36
2019-05-29T13:44:08.045Z,101478.62
2019-05-29T13:46:37.668Z,101472.88
2019-05-29T13:49:07.353Z,101471.52
2019-05-29T13:51:37.107Z,101471.17
2019-05-29T13:54:13.498Z,101474.48
2019-05-29T13:56:39.072Z,101466.64
2019-05-29T13:59:08.626Z,101458.35
2019-05-29T14:01:38.309Z,101462.52
2019-05-29T14:04:08.618Z,101455.00
2019-05-29T14:06:38.385Z,101452.62
2019-05-29T14:09:09.888Z,101455.58
2019-05-29T14:11:39.988Z,101454.62
2019-05-29T14:14:12.984Z,101448.00
2019-05-29T14:16:42.003Z,101446.80
2019-05-29T14:19:12.148Z,101453.85
2019-05-29T14:21:43.002Z,101446.78
2019-05-29T14:24:26.217Z,101452.11
2019-05-29T14:26:44.219Z,101448.18
2019-05-29T14:29:13.835Z,101450.95
2019-05-29T14:31:43.461Z,101449.53
2019-05-29T14:34:13.458Z,101447.70
2019-05-29T14:36:43.108Z,101444.50
2019-05-29T14:39:12.692Z,101445.91
2019-05-29T14:41:42.318Z,101445.36
2019-05-29T14:44:12.113Z,101445.70
2019-05-29T14:46:41.815Z,101444.45
2019-05-29T14:49:13.363Z,101448.00
2019-05-29T14:51:42.699Z,101446.02
2019-05-29T14:54:13.072Z,101450.56
2019-05-29T14:56:43.191Z,101449.35
2019-05-29T14:59:13.704Z,101442.94
2019-05-29T15:01:43.466Z,101441.39
2019-05-29T15:04:14.606Z,101442.08
2019-05-29T15:06:44.395Z,101445.59
2019-05-29T15:09:14.079Z,101450.94
2019-05-29T15:11:43.664Z,101456.38
2019-05-29T15:14:14.475Z,101452.67
2019-05-29T15:16:44.113Z,101455.41
2019-05-29T15:19:15.106Z,101446.25
2019-05-29T15:21:44.891Z,101450.69
2019-05-29T15:24:15.881Z,101449.09
2019-05-29T15:26:45.677Z,101454.44
2019-05-29T15:29:17.864Z,101452.14
2019-05-29T15:31:46.812Z,101450.34
2019-05-29T15:34:16.608Z,101449.00
2019-05-29T15:36:47.155Z,101457.78
2019-05-29T15:39:16.954Z,101450.24
2019-05-29T15:41:46.484Z,101454.99
2019-05-29T15:44:17.286Z,101456.26
2019-05-29T15:46:47.166Z,101454.69
2019-05-29T15:49:17.309Z,101455.42
2019-05-29T15:51:47.098Z,101455.88
2019-05-29T15:54:17.508Z,101455.41
2019-05-29T15:56:47.286Z,101452.04
2019-05-29T15:59:18.892Z,101461.79
2019-05-29T16:01:48.228Z,101452.44
2019-05-29T16:04:19.370Z,101452.91
2019-05-29T16:06:49.715Z,101457.39
2019-05-29T16:09:19.377Z,101455.77
2019-05-29T16:11:49.012Z,101452.08
2019-05-29T16:14:19.265Z,101444.39
2019-05-29T16:16:49.093Z,101440.63
2019-05-29T16:19:19.096Z,101448.16
2019-05-29T16:21:48.746Z,101444.77
2019-05-29T16:24:19.014Z,101446.99
2019-05-29T16:26:48.775Z,101444.98
2019-05-29T16:29:19.745Z,101440.48
2019-05-29T16:31:49.471Z,101439.66
2019-05-29T16:34:21.513Z,101438.37
2019-05-29T16:36:51.363Z,101429.09
2019-05-29T16:39:21.485Z,101431.29
2019-05-29T16:41:52.309Z,101431.62
2019-05-29T16:44:27.330Z,101429.59
2019-05-29T16:46:53.216Z,101424.62
2019-05-29T16:49:23.096Z,101425.21
2019-05-29T16:51:52.775Z,101419.61
2019-05-29T16:54:23.208Z,101424.80
2019-05-29T16:56:53.004Z,101423.30
2019-05-29T16:59:24.962Z,101421.53
2019-05-29T17:01:53.851Z,101430.06
2019-05-29T17:04:23.942Z,101429.63
2019-05-29T17:06:53.595Z,101424.72
2019-05-29T17:09:24.417Z,101432.83
2019-05-29T17:11:54.271Z,101437.36
2019-05-29T17:14:25.051Z,101440.64
2019-05-29T17:16:54.926Z,101440.14
2019-05-29T17:19:25.502Z,101434.83
2019-05-29T17:21:55.208Z,101435.33
2019-05-29T17:24:25.026Z,101437.02
2019-05-29T17:26:54.696Z,101441.91
2019-05-29T17:29:25.083Z,101440.91
2019-05-29T17:31:54.741Z,101438.69
2019-05-29T17:34:25.269Z,101447.39
2019-05-29T17:36:55.058Z,101444.67
2019-05-29T17:39:25.145Z,101439.31
2019-05-29T17:41:54.761Z,101450.22
2019-05-29T17:44:25.577Z,101452.49
2019-05-29T17:46:55.654Z,101447.62
2019-05-29T17:49:33.894Z,101453.19
2019-05-29T17:51:56.576Z,101455.88
2019-05-29T17:54:26.205Z,101462.30
2019-05-29T17:56:56.526Z,101458.36
2019-05-29T17:59:26.358Z,101461.22
2019-05-29T18:01:56.040Z,101463.31
2019-05-29T18:04:26.776Z,101464.21
2019-05-29T18:06:56.776Z,101466.27
2019-05-29T18:09:28.813Z,101461.33
2019-05-29T18:11:57.801Z,101462.46
2019-05-29T18:14:27.615Z,101456.72
2019-05-29T18:16:57.324Z,101460.07
2019-05-29T18:19:28.234Z,101468.11
2019-05-29T18:21:58.566Z,101468.03
2019-05-29T18:24:29.178Z,101475.05
2019-05-29T18:26:59.351Z,101479.88
2019-05-29T18:29:31.190Z,101478.80
2019-05-29T18:32:01.455Z,101493.69
2019-05-29T18:34:31.033Z,101484.77
2019-05-29T18:37:02.510Z,101482.89
2019-05-29T18:39:32.514Z,101479.16
2019-05-29T18:42:03.182Z,101480.80
2019-05-29T18:44:33.106Z,101482.06
2019-05-29T18:47:02.789Z,101478.93
2019-05-29T18:49:32.688Z,101486.34
2019-05-29T18:52:02.270Z,101480.06
2019-05-29T18:54:33.112Z,101482.38
2019-05-29T18:57:15.170Z,101478.33
2019-05-29T18:59:34.241Z,101479.73
2019-05-29T19:02:03.879Z,101480.58
2019-05-29T19:04:33.490Z,101482.44
2019-05-29T19:07:03.057Z,101482.62
2019-05-29T19:09:32.718Z,101488.73
2019-05-29T19:12:02.457Z,101488.67
2019-05-29T19:14:32.509Z,101487.32
2019-05-29T19:17:02.352Z,101488.52
2019-05-29T19:19:32.533Z,101481.80
2019-05-29T19:22:02.305Z,101489.75
2019-05-29T19:24:32.850Z,101498.00
2019-05-29T19:27:02.493Z,101495.57
2019-05-29T19:29:33.311Z,101491.50
2019-05-29T19:32:02.991Z,101495.44
2019-05-29T19:34:33.678Z,101499.22
2019-05-29T19:37:03.505Z,101502.39
2019-05-29T19:39:34.195Z,101504.56
2019-05-29T19:42:03.855Z,101503.41
2019-05-29T19:44:34.598Z,101507.23
2019-05-29T19:47:04.334Z,101514.27
2019-05-29T19:49:35.195Z,101524.38
2019-05-29T19:52:05.096Z,101522.33
2019-05-29T19:54:35.731Z,101524.87
2019-05-29T19:57:05.706Z,101529.50
2019-05-29T19:59:36.317Z,101536.52
2019-05-29T20:02:06.033Z,101538.06
2019-05-29T20:04:36.824Z,101539.34
2019-05-29T20:07:06.650Z,101532.89
2019-05-29T20:09:37.480Z,101542.02
2019-05-29T20:12:07.215Z,101536.45
2019-05-29T20:14:37.955Z,101545.75
2019-05-29T20:17:07.735Z,101546.40
2019-05-29T20:19:40.713Z,101539.34
2019-05-29T20:22:08.705Z,101550.52
2019-05-29T20:24:39.084Z,101549.25
2019-05-29T20:27:08.696Z,101547.46
2019-05-29T20:29:38.556Z,101545.32
2019-05-29T20:32:08.421Z,101546.16
2019-05-29T20:34:38.998Z,101551.19
2019-05-29T20:37:08.774Z,101557.30
2019-05-29T20:39:38.587Z,101554.86
2019-05-29T20:42:08.321Z,101563.23
2019-05-29T20:44:38.721Z,101555.61
2019-05-29T20:47:08.698Z,101556.20
2019-05-29T20:49:38.305Z,101560.03
2019-05-29T20:52:07.977Z,101556.47
2019-05-29T20:54:37.707Z,101555.46
2019-05-29T20:57:10.727Z,101563.62
2019-05-29T20:59:42.150Z,101566.04
2019-05-29T21:02:12.302Z,101561.48
2019-05-29T21:04:42.764Z,101562.32
2019-05-29T21:07:12.523Z,101561.25
2019-05-29T21:09:43.320Z,101561.06
2019-05-29T21:12:12.897Z,101560.27
2019-05-29T21:14:43.423Z,101559.57
2019-05-29T21:17:13.741Z,101568.81
2019-05-29T21:19:44.530Z,101570.92
2019-05-29T21:22:14.387Z,101572.75
2019-05-29T21:24:55.448Z,101574.78
2019-05-29T21:27:15.464Z,101575.48
2019-05-29T21:29:45.563Z,101577.71
2019-05-29T21:32:15.315Z,101583.45
2019-05-29T21:34:46.110Z,101583.88
2019-05-29T21:37:15.840Z,101582.41
2019-05-29T21:39:46.673Z,101578.52
2019-05-29T21:42:16.425Z,101578.60
2019-05-29T21:44:47.103Z,101570.50
2019-05-29T21:47:16.788Z,101577.54
2019-05-29T21:49:47.473Z,101578.74
2019-05-29T21:52:17.208Z,101579.08
2019-05-29T21:54:47.651Z,101583.94
2019-05-29T21:57:17.404Z,101582.33
2019-05-29T21:59:48.118Z,101582.84
2019-05-29T22:02:18.264Z,101587.69
2019-05-29T22:04:48.692Z,101582.03
2019-05-29T22:07:18.480Z,101581.87
2019-05-29T22:09:48.106Z,101587.70
2019-05-29T22:12:17.861Z,101580.20
2019-05-29T22:14:47.615Z,101583.85
2019-05-29T22:17:17.176Z,101581.20
2019-05-29T22:19:46.739Z,101584.23
2019-05-29T22:22:16.321Z,101578.94
2019-05-29T22:24:46.099Z,101580.25
2019-05-29T22:27:15.720Z,101584.41
2019-05-29T22:29:45.277Z,101582.43
2019-05-29T22:32:15.147Z,101583.31
2019-05-29T22:34:44.707Z,101583.94
2019-05-29T22:37:14.371Z,101586.81
2019-05-29T22:39:43.938Z,101583.48
2019-05-29T22:42:13.545Z,101585.13
2019-05-29T22:44:43.122Z,101584.75
2019-05-29T22:47:12.704Z,101587.77
2019-05-29T22:49:42.261Z,101585.14
2019-05-29T22:52:11.864Z,101580.82
2019-05-29T22:54:41.454Z,101585.14
2019-05-29T22:57:11.049Z,101589.77
2019-05-29T22:59:40.606Z,101581.67
2019-05-29T23:02:10.199Z,101590.47
2019-05-29T23:04:39.893Z,101586.02
2019-05-29T23:07:09.552Z,101583.67
2019-05-29T23:09:39.144Z,101581.02
2019-05-29T23:12:08.729Z,101581.54
2019-05-29T23:14:38.407Z,101582.19
2019-05-29T23:17:07.971Z,101581.69
2019-05-29T23:19:37.535Z,101580.70
2019-05-29T23:22:07.933Z,101583.17
2019-05-29T23:24:38.480Z,101585.00
2019-05-29T23:27:09.712Z,101579.38
2019-05-29T23:29:48.504Z,101578.89
2019-05-29T23:32:10.690Z,101583.80
2019-05-29T23:34:40.243Z,101580.48
2019-05-29T23:37:13.440Z,101579.64
2019-05-29T23:39:41.141Z,101581.50
2019-05-29T23:42:10.768Z,101579.34
2019-05-29T23:44:40.437Z,101583.13
2019-05-29T23:47:10.140Z,101582.78
2019-05-29T23:49:39.877Z,101588.09
2019-05-29T23:52:09.468Z,101584.30
2019-05-29T23:54:39.044Z,101586.62
2019-05-29T23:57:08.640Z,101581.36
2019-05-29T23:59:38.245Z,101586.02
